createdAt,value
2023-04-18T00:00:44.099Z,101388.59
2023-04-18T00:03:16.903Z,101389.59
2023-04-18T00:05:48.386Z,101383.27
2023-04-18T00:08:16.447Z,101383.73
2023-04-18T00:10:44.473Z,101383.98
2023-04-18T00:13:12.862Z,101385.98
2023-04-18T00:15:43.970Z,101388.42
2023-04-18T00:18:21.752Z,101384.83
2023-04-18T00:20:50.103Z,101385.94
2023-04-18T00:23:18.716Z,101387.77
2023-04-18T00:25:46.803Z,101388.88
2023-04-18T00:28:15.045Z,101387.66
2023-04-18T00:30:42.935Z,101387.40
2023-04-18T00:33:11.093Z,101390.06
2023-04-18T00:35:39.492Z,101384.56
2023-04-18T00:38:08.975Z,101382.73
2023-04-18T00:40:38.062Z,101385.78
2023-04-18T00:43:08.488Z,101384.05
2023-04-18T00:45:37.193Z,101379.63
2023-04-18T00:48:05.489Z,101381.06
2023-04-18T00:50:33.656Z,101384.98
2023-04-18T00:53:02.955Z,101383.94
2023-04-18T00:55:31.122Z,101383.73
2023-04-18T00:57:59.272Z,101384.83
2023-04-18T01:00:27.423Z,101381.13
2023-04-18T01:02:56.383Z,101377.64
2023-04-18T01:05:27.099Z,101381.14
2023-04-18T01:08:01.200Z,101380.95
2023-04-18T01:10:31.178Z,101383.29
2023-04-18T01:13:16.157Z,101384.25
2023-04-18T01:15:49.043Z,101387.98
2023-04-18T01:18:18.117Z,101389.10
2023-04-18T01:22:02.708Z,101390.70
2023-04-18T01:24:36.501Z,101384.36
2023-04-18T01:27:04.621Z,101385.41
2023-04-18T01:29:35.048Z,101385.08
2023-04-18T01:32:04.353Z,101380.20
2023-04-18T01:34:32.540Z,101384.13
2023-04-18T01:37:00.492Z,101387.55
2023-04-18T01:39:28.970Z,101387.39
2023-04-18T01:41:57.280Z,101383.55
2023-04-18T01:44:25.163Z,101384.59
2023-04-18T01:46:53.242Z,101383.20
2023-04-18T01:49:21.401Z,101383.23
2023-04-18T01:51:50.370Z,101384.23
2023-04-18T01:54:18.300Z,101387.32
2023-04-18T01:56:46.551Z,101384.91
2023-04-18T01:59:14.464Z,101374.00
2023-04-18T02:01:42.974Z,101385.08
2023-04-18T02:04:11.773Z,101383.20
2023-04-18T02:06:39.842Z,101384.73
2023-04-18T02:09:07.828Z,101383.84
2023-04-18T02:11:36.012Z,101377.20
2023-04-18T02:14:04.377Z,101375.09
2023-04-18T02:16:32.439Z,101372.62
2023-04-18T02:19:01.538Z,101370.84
2023-04-18T02:21:30.471Z,101369.42
2023-04-18T02:23:58.554Z,101366.91
2023-04-18T02:26:26.820Z,101365.30
2023-04-18T02:28:58.865Z,101362.68
2023-04-18T02:31:27.226Z,101367.94
2023-04-18T02:33:55.178Z,101367.23
2023-04-18T02:36:23.625Z,101367.03
2023-04-18T02:38:51.903Z,101370.70
2023-04-18T02:41:21.192Z,101372.08
2023-04-18T02:43:49.227Z,101370.64
2023-04-18T02:46:18.122Z,101369.94
2023-04-18T02:48:48.302Z,101368.01
2023-04-18T02:51:16.954Z,101370.14
2023-04-18T02:53:45.414Z,101372.41
2023-04-18T02:56:17.660Z,101370.30
2023-04-18T02:59:18.071Z,101374.92
2023-04-18T03:02:21.192Z,101377.27
2023-04-18T03:04:53.624Z,101377.33
2023-04-18T03:07:21.862Z,101370.40
2023-04-18T03:09:50.295Z,101371.50
2023-04-18T03:12:23.172Z,101374.71
2023-04-18T03:14:51.076Z,101375.80
2023-04-18T03:17:19.247Z,101377.94
2023-04-18T03:19:49.788Z,101383.75
2023-04-18T03:22:20.063Z,101379.38
2023-04-18T03:24:55.399Z,101374.63
2023-04-18T03:27:26.228Z,101377.66
2023-04-18T03:29:54.589Z,101379.33
2023-04-18T03:32:23.786Z,101381.65
2023-04-18T03:34:51.802Z,101379.75
2023-04-18T03:37:20.097Z,101380.13
2023-04-18T03:39:51.664Z,101384.52
2023-04-18T03:42:19.864Z,101385.27
2023-04-18T03:44:47.971Z,101387.94
2023-04-18T03:47:17.228Z,101390.42
2023-04-18T03:49:48.004Z,101391.62
2023-04-18T03:52:16.173Z,101397.05
2023-04-18T03:54:44.487Z,101399.00
2023-04-18T03:57:12.890Z,101397.95
2023-04-18T03:59:41.521Z,101403.91
2023-04-18T04:02:09.962Z,101402.50
2023-04-18T04:04:38.641Z,101404.21
2023-04-18T04:07:06.818Z,101404.22
2023-04-18T04:09:35.054Z,101402.98
2023-04-18T04:12:03.117Z,101402.77
2023-04-18T04:14:31.259Z,101404.69
2023-04-18T04:16:59.493Z,101404.02
2023-04-18T04:19:27.457Z,101404.91
2023-04-18T04:22:05.303Z,101390.85
2023-04-18T04:24:33.855Z,101409.09
2023-04-18T04:27:03.789Z,101406.55
2023-04-18T04:29:33.028Z,101407.05
2023-04-18T04:32:01.216Z,101407.23
2023-04-18T04:34:35.871Z,101403.67
2023-04-18T04:37:05.560Z,101409.09
2023-04-18T04:39:37.589Z,101410.54
2023-04-18T04:42:25.516Z,101415.45
2023-04-18T04:45:03.878Z,101415.44
2023-04-18T04:47:32.059Z,101417.35
2023-04-18T04:49:59.976Z,101416.75
2023-04-18T04:52:28.494Z,101417.23
2023-04-18T04:54:56.630Z,101420.89
2023-04-18T04:57:26.454Z,101422.10
2023-04-18T04:59:54.722Z,101424.87
2023-04-18T05:02:23.613Z,101428.86
2023-04-18T05:04:51.626Z,101430.07
2023-04-18T05:07:19.866Z,101430.30
2023-04-18T05:09:47.954Z,101427.64
2023-04-18T05:12:15.870Z,101424.60
2023-04-18T05:14:43.948Z,101425.94
2023-04-18T05:17:11.824Z,101425.97
2023-04-18T05:19:40.301Z,101432.69
2023-04-18T05:22:08.358Z,101430.50
2023-04-18T05:24:36.318Z,101429.94
2023-04-18T05:27:04.568Z,101436.40
2023-04-18T05:29:32.746Z,101404.17
2023-04-18T05:32:01.769Z,101435.41
2023-04-18T05:34:30.176Z,101434.45
2023-04-18T05:36:58.606Z,101434.82
2023-04-18T05:39:26.848Z,101436.59
2023-04-18T05:41:54.756Z,101435.33
2023-04-18T05:44:24.410Z,101430.73
2023-04-18T05:46:52.503Z,101430.44
2023-04-18T05:49:20.463Z,101429.38
2023-04-18T05:51:53.055Z,101430.25
2023-04-18T05:54:21.587Z,101431.30
2023-04-18T05:56:49.868Z,101431.46
2023-04-18T05:59:18.027Z,101432.98
2023-04-18T06:01:45.933Z,101433.30
2023-04-18T06:04:14.442Z,101432.65
2023-04-18T06:06:42.992Z,101432.20
2023-04-18T06:09:11.237Z,101429.52
2023-04-18T06:11:39.255Z,101431.04
2023-04-18T06:14:08.020Z,101434.07
2023-04-18T06:16:37.527Z,101435.91
2023-04-18T06:19:05.973Z,101437.73
2023-04-18T06:21:34.095Z,101437.80
2023-04-18T06:24:02.348Z,101441.02
2023-04-18T06:26:32.180Z,101436.59
2023-04-18T06:29:00.261Z,101435.66
2023-04-18T06:31:28.304Z,101438.66
2023-04-18T06:33:57.080Z,101441.81
2023-04-18T06:36:27.030Z,101440.09
2023-04-18T06:38:55.052Z,101443.48
2023-04-18T06:41:23.583Z,101444.90
2023-04-18T06:44:02.919Z,101443.39
2023-04-18T06:46:33.112Z,101446.60
2023-04-18T06:49:02.179Z,101447.38
2023-04-18T06:51:30.132Z,101450.04
2023-04-18T06:54:00.378Z,101447.11
2023-04-18T06:56:29.898Z,101451.21
2023-04-18T06:58:57.796Z,101445.77
2023-04-18T07:01:26.043Z,101444.21
2023-04-18T07:03:54.311Z,101454.09
2023-04-18T07:06:22.486Z,101456.17
2023-04-18T07:08:52.206Z,101459.86
2023-04-18T07:11:23.738Z,101459.98
2023-04-18T07:13:51.727Z,101454.95
2023-04-18T07:16:20.467Z,101452.71
2023-04-18T07:18:48.693Z,101454.56
2023-04-18T07:21:16.666Z,101452.14
2023-04-18T07:23:47.522Z,101452.16
2023-04-18T07:26:16.020Z,101450.96
2023-04-18T07:28:44.391Z,101448.96
2023-04-18T07:31:14.596Z,101451.05
2023-04-18T07:33:43.940Z,101449.98
2023-04-18T07:36:12.913Z,101449.29
2023-04-18T07:38:40.978Z,101450.84
2023-04-18T07:41:09.198Z,101456.70
2023-04-18T07:43:38.854Z,101455.36
2023-04-18T07:46:08.669Z,101456.02
2023-04-18T07:48:36.984Z,101455.68
2023-04-18T07:51:05.358Z,101456.42
2023-04-18T07:53:33.433Z,101460.20
2023-04-18T07:56:03.083Z,101462.02
2023-04-18T07:58:31.216Z,101462.28
2023-04-18T08:00:59.227Z,101462.10
2023-04-18T08:03:28.168Z,101461.81
2023-04-18T08:05:56.909Z,101464.21
2023-04-18T08:08:29.429Z,101459.64
2023-04-18T08:10:57.407Z,101465.29
2023-04-18T08:13:25.925Z,101463.50
2023-04-18T08:15:56.143Z,101468.75
2023-04-18T08:18:24.188Z,101465.39
2023-04-18T08:20:52.283Z,101462.88
2023-04-18T08:23:20.890Z,101458.06
2023-04-18T08:25:49.150Z,101462.91
2023-04-18T08:28:17.504Z,101467.58
2023-04-18T08:30:49.057Z,101471.09
2023-04-18T08:33:18.555Z,101469.08
2023-04-18T08:38:44.207Z,101471.14
2023-04-18T08:41:12.395Z,101467.76
2023-04-18T08:43:40.305Z,101468.59
2023-04-18T08:46:09.386Z,101462.70
2023-04-18T08:48:38.283Z,101465.82
2023-04-18T08:51:06.294Z,101460.31
2023-04-18T08:53:34.399Z,101463.82
2023-04-18T08:56:03.031Z,101465.14
2023-04-18T08:58:33.846Z,101460.23
2023-04-18T09:01:02.634Z,101463.55
2023-04-18T09:03:41.316Z,101461.14
2023-04-18T09:06:21.225Z,101460.85
2023-04-18T09:08:59.284Z,101455.08
2023-04-18T09:11:29.918Z,101437.58
2023-04-18T09:13:59.135Z,101450.86
2023-04-18T09:16:28.144Z,101445.20
2023-04-18T09:19:18.740Z,101443.97
2023-04-18T09:21:57.100Z,101440.02
2023-04-18T09:24:27.262Z,101432.97
2023-04-18T09:26:57.336Z,101429.66
2023-04-18T09:29:49.758Z,101428.83
2023-04-18T09:32:27.182Z,101425.91
2023-04-18T09:34:58.865Z,101425.29
2023-04-18T09:37:28.210Z,101428.82
2023-04-18T09:39:56.059Z,101424.67
2023-04-18T09:42:26.754Z,101422.88
2023-04-18T09:45:06.598Z,101419.36
2023-04-18T09:47:36.752Z,101418.78
2023-04-18T09:50:12.009Z,101416.38
2023-04-18T09:52:42.101Z,101415.15
2023-04-18T09:55:19.562Z,101418.14
2023-04-18T09:57:49.075Z,101414.48
2023-04-18T10:00:24.852Z,101417.81
2023-04-18T10:03:10.753Z,101415.16
2023-04-18T10:05:41.544Z,101410.05
2023-04-18T10:08:10.604Z,101411.52
2023-04-18T10:10:39.168Z,101406.83
2023-04-18T10:13:13.675Z,101400.48
2023-04-18T10:15:44.077Z,101397.98
2023-04-18T10:18:18.769Z,101399.29
2023-04-18T10:20:47.441Z,101396.86
2023-04-18T10:23:31.081Z,101398.00
2023-04-18T10:25:59.771Z,101393.67
2023-04-18T10:28:41.111Z,101387.70
2023-04-18T10:31:09.375Z,101388.73
2023-04-18T10:33:42.807Z,101387.64
2023-04-18T10:36:13.945Z,101385.83
2023-04-18T10:38:50.584Z,101388.66
2023-04-18T10:41:27.139Z,101391.98
2023-04-18T10:44:08.652Z,101383.41
2023-04-18T10:46:44.096Z,101382.31
2023-04-18T10:49:20.166Z,101382.16
2023-04-18T10:51:49.872Z,101384.65
2023-04-18T10:54:32.948Z,101381.52
2023-04-18T10:57:03.939Z,101376.45
2023-04-18T10:59:34.843Z,101379.50
2023-04-18T11:02:18.126Z,101379.11
2023-04-18T11:04:57.745Z,101376.65
2023-04-18T11:07:38.498Z,101376.19
2023-04-18T11:10:09.341Z,101378.18
2023-04-18T11:12:39.702Z,101368.69
2023-04-18T11:15:14.550Z,101368.88
2023-04-18T11:17:43.886Z,101367.45
2023-04-18T11:20:15.562Z,101366.13
2023-04-18T11:22:49.780Z,101364.96
2023-04-18T11:25:28.303Z,101366.73
2023-04-18T11:28:00.049Z,101362.31
2023-04-18T11:30:36.199Z,101359.73
2023-04-18T11:33:09.279Z,101356.30
2023-04-18T11:35:42.908Z,101353.05
2023-04-18T11:38:14.256Z,101351.36
2023-04-18T11:40:49.884Z,101348.52
2023-04-18T11:43:22.859Z,101347.54
2023-04-18T11:45:59.790Z,101349.36
2023-04-18T11:48:42.281Z,101347.54
2023-04-18T11:51:38.900Z,101343.75
2023-04-18T11:54:36.346Z,101342.44
2023-04-18T11:57:06.591Z,101349.21
2023-04-18T11:59:38.288Z,101347.93
2023-04-18T12:02:16.043Z,101353.96
2023-04-18T12:04:56.896Z,101339.89
2023-04-18T12:07:41.504Z,101337.38
2023-04-18T12:10:23.650Z,101331.80
2023-04-18T12:12:54.581Z,101332.42
2023-04-18T12:15:28.446Z,101328.48
2023-04-18T12:18:02.739Z,101330.65
2023-04-18T12:20:46.524Z,101327.38
2023-04-18T12:23:31.549Z,101321.24
2023-04-18T12:26:07.847Z,101323.45
2023-04-18T12:28:36.316Z,101318.17
2023-04-18T12:31:07.473Z,101318.36
2023-04-18T12:33:36.979Z,101318.48
2023-04-18T12:36:06.231Z,101317.41
2023-04-18T12:38:35.160Z,101312.88
2023-04-18T12:41:03.244Z,101308.27
2023-04-18T12:43:40.341Z,101304.58
2023-04-18T12:46:08.446Z,101309.10
2023-04-18T12:48:36.789Z,101298.52
2023-04-18T12:51:04.978Z,101306.88
2023-04-18T12:53:33.082Z,101308.77
2023-04-18T12:56:01.182Z,101307.59
2023-04-18T12:58:29.087Z,101305.23
2023-04-18T13:00:57.998Z,101302.41
2023-04-18T13:03:29.406Z,101299.98
2023-04-18T13:05:57.639Z,101294.34
2023-04-18T13:08:26.064Z,101292.24
2023-04-18T13:10:54.078Z,101295.61
2023-04-18T13:13:22.114Z,101294.23
2023-04-18T13:15:51.594Z,101294.96
2023-04-18T13:18:19.844Z,101289.41
2023-04-18T13:20:47.897Z,101288.51
2023-04-18T13:23:15.905Z,101291.32
2023-04-18T13:25:44.197Z,101285.74
2023-04-18T13:28:12.198Z,101280.85
2023-04-18T13:30:40.310Z,101280.13
2023-04-18T13:33:08.387Z,101277.52
2023-04-18T13:35:37.661Z,101276.13
2023-04-18T13:38:06.095Z,101276.95
2023-04-18T13:40:34.289Z,101277.58
2023-04-18T13:43:02.488Z,101276.37
2023-04-18T13:45:30.747Z,101270.07
2023-04-18T13:47:59.214Z,101270.92
2023-04-18T13:50:27.422Z,101271.33
2023-04-18T13:52:55.489Z,101270.41
2023-04-18T13:55:24.310Z,101265.65
2023-04-18T13:57:55.072Z,101267.00
2023-04-18T14:00:23.409Z,101264.73
2023-04-18T14:02:51.859Z,101262.48
2023-04-18T14:05:19.974Z,101262.81
2023-04-18T14:07:48.936Z,101257.97
2023-04-18T14:10:17.112Z,101258.04
2023-04-18T14:12:46.057Z,101257.37
2023-04-18T14:15:14.325Z,101254.88
2023-04-18T14:17:45.242Z,101253.83
2023-04-18T14:20:15.926Z,101254.94
2023-04-18T14:22:44.185Z,101249.45
2023-04-18T14:25:14.490Z,101247.88
2023-04-18T14:27:43.284Z,101246.95
2023-04-18T14:30:11.835Z,101249.73
2023-04-18T14:32:40.612Z,101242.02
2023-04-18T14:35:10.409Z,101245.11
2023-04-18T14:37:38.537Z,101242.11
2023-04-18T14:40:08.289Z,101243.53
2023-04-18T14:42:36.588Z,101236.75
2023-04-18T14:45:07.772Z,101234.20
2023-04-18T14:47:35.990Z,101233.55
2023-04-18T14:50:04.456Z,101231.58
2023-04-18T14:52:32.635Z,101232.96
2023-04-18T14:55:00.559Z,101232.55
2023-04-18T14:57:31.306Z,101230.42
2023-04-18T14:59:59.486Z,101228.71
2023-04-18T15:02:27.455Z,101229.38
2023-04-18T15:04:56.170Z,101227.58
2023-04-18T15:07:24.856Z,101226.98
2023-04-18T15:09:52.807Z,101224.23
2023-04-18T15:12:20.974Z,101225.90
2023-04-18T15:14:52.006Z,101223.70
2023-04-18T15:17:20.500Z,101219.30
2023-04-18T15:19:49.320Z,101220.69
2023-04-18T15:22:20.413Z,101219.80
2023-04-18T15:24:52.167Z,101215.58
2023-04-18T15:27:20.354Z,101217.80
2023-04-18T15:29:48.295Z,101218.96
2023-04-18T15:32:18.322Z,101221.61
2023-04-18T15:34:46.787Z,101221.79
2023-04-18T15:37:14.899Z,101225.13
2023-04-18T15:39:42.949Z,101197.32
2023-04-18T15:42:11.357Z,101222.84
2023-04-18T15:44:39.698Z,101219.93
2023-04-18T15:47:12.938Z,101222.29
2023-04-18T15:49:43.274Z,101220.11
2023-04-18T15:52:11.842Z,101218.70
2023-04-18T15:54:43.048Z,101217.01
2023-04-18T15:57:12.299Z,101215.73
2023-04-18T15:59:40.329Z,101214.93
2023-04-18T16:02:09.485Z,101214.30
2023-04-18T16:04:37.928Z,101215.80
2023-04-18T16:07:06.525Z,101214.27
2023-04-18T16:09:34.730Z,101213.27
2023-04-18T16:12:03.400Z,101211.52
2023-04-18T16:14:32.197Z,101207.52
2023-04-18T16:17:00.729Z,101212.02
2023-04-18T16:19:28.756Z,101211.45
2023-04-18T16:21:57.371Z,101212.10
2023-04-18T16:24:25.937Z,101211.57
2023-04-18T16:26:55.668Z,101207.89
2023-04-18T16:29:23.960Z,101208.05
2023-04-18T16:31:52.215Z,101208.87
2023-04-18T16:34:20.783Z,101202.97
2023-04-18T16:36:50.982Z,101202.04
2023-04-18T16:39:19.657Z,101202.92
2023-04-18T16:41:47.836Z,101197.89
2023-04-18T16:44:16.190Z,101198.81
2023-04-18T16:46:44.541Z,101195.08
2023-04-18T16:49:12.916Z,101197.02
2023-04-18T16:51:40.929Z,101193.37
2023-04-18T16:54:09.143Z,101191.29
2023-04-18T16:56:37.779Z,101192.54
2023-04-18T16:59:09.278Z,101192.48
2023-04-18T17:01:37.880Z,101191.19
2023-04-18T17:04:06.264Z,101192.93
2023-04-18T17:06:34.429Z,101190.81
2023-04-18T17:09:02.676Z,101192.33
2023-04-18T17:11:32.590Z,101192.58
2023-04-18T17:14:00.813Z,101191.67
2023-04-18T17:16:28.777Z,101151.39
2023-04-18T17:18:57.778Z,101192.77
2023-04-18T17:21:27.472Z,101193.11
2023-04-18T17:23:56.538Z,101189.75
2023-04-18T17:26:26.693Z,101189.02
2023-04-18T17:28:54.730Z,101192.56
2023-04-18T17:31:22.794Z,101192.80
2023-04-18T17:33:50.998Z,101193.05
2023-04-18T17:36:19.066Z,101186.02
2023-04-18T17:38:49.695Z,101187.02
2023-04-18T17:41:20.505Z,101186.01
2023-04-18T17:43:51.041Z,101185.60
2023-04-18T17:46:19.684Z,101182.08
2023-04-18T17:48:47.583Z,101184.41
2023-04-18T17:51:19.659Z,101186.70
2023-04-18T17:53:47.711Z,101183.66
2023-04-18T17:56:15.737Z,101184.70
2023-04-18T17:58:43.758Z,101185.70
2023-04-18T18:01:19.886Z,101188.60
2023-04-18T18:03:48.851Z,101195.46
2023-04-18T18:06:17.297Z,101193.68
2023-04-18T18:08:45.357Z,101198.21
2023-04-18T18:11:13.901Z,101200.34
2023-04-18T18:13:42.355Z,101201.39
2023-04-18T18:16:10.320Z,101198.56
2023-04-18T18:18:39.153Z,101194.96
2023-04-18T18:21:07.304Z,101196.90
2023-04-18T18:23:35.608Z,101189.73
2023-04-18T18:26:04.430Z,101188.47
2023-04-18T18:28:33.295Z,101190.54
2023-04-18T18:31:01.479Z,101187.58
2023-04-18T18:33:29.745Z,101187.42
2023-04-18T18:35:58.650Z,101186.87
2023-04-18T18:38:27.092Z,101173.77
2023-04-18T18:40:55.222Z,101182.04
2023-04-18T18:43:26.715Z,101181.51
2023-04-18T18:45:54.804Z,101183.91
2023-04-18T18:48:24.274Z,101183.48
2023-04-18T18:50:52.549Z,101179.84
2023-04-18T18:53:20.640Z,101179.73
2023-04-18T18:55:48.682Z,101178.09
2023-04-18T18:58:16.829Z,101175.02
2023-04-18T19:00:47.051Z,101176.42
2023-04-18T19:03:17.092Z,101172.45
2023-04-18T19:05:47.972Z,101170.24
2023-04-18T19:08:15.859Z,101167.27
2023-04-18T19:10:44.359Z,101166.67
2023-04-18T19:13:12.501Z,101170.23
2023-04-18T19:15:40.699Z,101166.68
2023-04-18T19:18:08.909Z,101166.87
2023-04-18T19:20:39.220Z,101166.53
2023-04-18T19:23:07.517Z,101167.08
2023-04-18T19:25:36.426Z,101160.00
2023-04-18T19:28:06.004Z,101158.05
2023-04-18T19:30:33.892Z,101159.50
2023-04-18T19:33:02.116Z,101156.08
2023-04-18T19:35:30.422Z,101156.68
2023-04-18T19:38:01.848Z,101155.98
2023-04-18T19:40:30.100Z,101154.55
2023-04-18T19:42:58.419Z,101152.05
2023-04-18T19:45:26.864Z,101154.03
2023-04-18T19:47:55.694Z,101153.64
2023-04-18T19:50:23.615Z,101148.30
2023-04-18T19:52:51.708Z,101147.17
2023-04-18T19:55:19.826Z,101147.15
2023-04-18T19:57:48.498Z,101142.24
2023-04-18T20:00:16.769Z,101139.28
2023-04-18T20:02:45.018Z,101140.13
2023-04-18T20:05:16.109Z,101134.98
2023-04-18T20:07:44.568Z,101135.86
2023-04-18T20:10:13.016Z,101136.94
2023-04-18T20:12:41.172Z,101134.77
2023-04-18T20:15:09.499Z,101135.85
2023-04-18T20:17:37.825Z,101133.17
2023-04-18T20:20:09.119Z,101134.17
2023-04-18T20:22:38.788Z,101130.28
2023-04-18T20:25:09.222Z,101132.52
2023-04-18T20:27:37.075Z,101128.05
2023-04-18T20:30:06.472Z,101124.11
2023-04-18T20:32:36.430Z,101123.71
2023-04-18T20:35:04.719Z,101127.91
2023-04-18T20:37:36.923Z,101122.78
2023-04-18T20:40:08.338Z,101123.27
2023-04-18T20:42:37.328Z,101117.98
2023-04-18T20:45:06.530Z,101117.62
2023-04-18T20:47:34.822Z,101121.43
2023-04-18T20:50:03.472Z,101117.27
2023-04-18T20:52:33.005Z,101111.57
2023-04-18T20:55:01.234Z,101108.52
2023-04-18T20:57:29.300Z,101105.36
2023-04-18T21:00:02.417Z,101102.77
2023-04-18T21:02:30.983Z,101099.91
2023-04-18T21:04:59.675Z,101098.91
2023-04-18T21:07:31.436Z,101096.70
2023-04-18T21:10:00.034Z,101094.55
2023-04-18T21:12:29.719Z,101093.83
2023-04-18T21:14:57.762Z,101093.42
2023-04-18T21:17:26.096Z,101088.46
2023-04-18T21:19:55.957Z,101085.58
2023-04-18T21:22:23.886Z,101085.20
2023-04-18T21:24:51.867Z,101082.86
2023-04-18T21:27:19.842Z,101080.05
2023-04-18T21:29:48.269Z,101077.22
2023-04-18T21:32:16.275Z,101077.01
2023-04-18T21:34:44.299Z,101075.40
2023-04-18T21:37:12.361Z,101068.51
2023-04-18T21:39:40.465Z,101066.02
2023-04-18T21:42:08.975Z,101064.04
2023-04-18T21:44:37.605Z,101062.21
2023-04-18T21:47:05.854Z,101063.27
2023-04-18T21:49:35.171Z,101062.23
2023-04-18T21:52:03.132Z,101060.59
2023-04-18T21:54:31.224Z,101056.30
2023-04-18T21:57:00.618Z,101055.16
2023-04-18T21:59:28.739Z,101052.25
2023-04-18T22:01:57.078Z,101053.14
2023-04-18T22:04:26.651Z,101052.15
2023-04-18T22:06:55.085Z,101049.50
2023-04-18T22:09:23.544Z,101048.44
2023-04-18T22:11:51.878Z,101045.25
2023-04-18T22:14:20.374Z,101041.54
2023-04-18T22:16:50.158Z,101042.77
2023-04-18T22:19:18.756Z,101041.39
2023-04-18T22:21:46.887Z,101038.73
2023-04-18T22:24:15.149Z,101038.20
2023-04-18T22:26:43.302Z,101034.89
2023-04-18T22:29:11.612Z,101033.39
2023-04-18T22:31:42.944Z,101030.83
2023-04-18T22:34:10.817Z,101024.63
2023-04-18T22:36:39.073Z,101023.13
2023-04-18T22:39:07.443Z,101018.38
2023-04-18T22:41:35.351Z,101017.65
2023-04-18T22:44:03.596Z,101017.88
2023-04-18T22:46:32.961Z,101015.20
2023-04-18T22:49:01.162Z,101012.20
2023-04-18T22:51:29.286Z,101010.27
2023-04-18T22:53:57.515Z,101011.63
2023-04-18T22:56:25.554Z,101008.23
2023-04-18T22:58:53.513Z,101006.25
2023-04-18T23:01:21.707Z,101003.77
2023-04-18T23:03:49.760Z,100998.39
2023-04-18T23:06:17.927Z,100999.14
2023-04-18T23:08:46.114Z,100994.67
2023-04-18T23:11:14.091Z,100995.61
2023-04-18T23:13:42.162Z,100993.49
2023-04-18T23:16:10.454Z,100990.39
2023-04-18T23:18:38.482Z,100987.33
2023-04-18T23:21:06.583Z,100981.84
2023-04-18T23:23:34.665Z,100977.61
2023-04-18T23:26:02.664Z,100972.46
2023-04-18T23:28:30.644Z,100966.96
2023-04-18T23:30:58.689Z,100965.95
2023-04-18T23:33:26.669Z,100962.86
2023-04-18T23:35:54.662Z,100958.45
2023-04-18T23:38:22.640Z,100958.17
2023-04-18T23:40:50.682Z,100957.88
2023-04-18T23:43:18.920Z,100954.63
2023-04-18T23:45:46.944Z,100949.48
2023-04-18T23:48:14.886Z,100949.50
2023-04-18T23:50:50.624Z,100948.85
2023-04-18T23:53:22.671Z,100949.79
2023-04-18T23:55:51.116Z,100950.55
2023-04-18T23:58:19.339Z,100948.33
